Αρχική σελίδα
METAR-TAF:

METAR-TAF

Αεροδρόμια :

Weno, Μικρονησία

γεωγραφικό πλάτος: 07-28N, γεωγραφικό μήκος: 151-51E, υψόμετρο: 3 μ

Παρών καιρός

Η αναφορά έγινε 1 ώρα και 4 λεπτά πριν, στις 07:54 UTC
Άνεμος 10 kt από BA με ριπές μέχρι 17 kt
Θερμοκρασία 30°C
Υγρασία 79%
Πίεση 1008 hPa
Ορατότητα: 24.1 χλμ
Διάσπαρτα νέφη σε ύψος 1400 πόδια
Αρκετά νέφη σε ύψος 30000 πόδια

METAR: PTKK 260754Z 04010G17KT 15SM SCT014 BKN300 30/26 A2978 RMK SLP086 T03000255

Χρόνος: 18:58 (08:58 UTC)

Πρόγνωση Καιρού

Η αναφορά έγινε 3 ώρες και 20 λεπτά πριν, στις 05:38 UTC
Η πρόγνωση ισχύει από τις 26 στις 06 UTC έως τις 27 στις 06 UTC
Άνεμος 11 kt από BA
Ορατότητα: 10 χλμ
Διάσπαρτα νέφη σε ύψος 1500 πόδια
Διάσπαρτα νέφη σε ύψος 12000 πόδια
Όμβροι σε κοντινή απόσταση,

TAF: PTKK 260538Z 2606/2706 04011KT P6SM VCSH SCT015 SCT120

Μετεωρολογικές αναφορές και προγνώσεις για περισσότερα από 4000 αεροδρόμια (δελτία METAR και TAF).

Οι διαθέσιμοι σταθμοί απεικονίζονται στο χάρτη με κίτρινες και κόκκινες κουκκίδες.

Μετακινήστε το ποντίκι πάνω από τις κουκκίδες για να δείτε το όνομα του σταθμού.

Στη συνέχεια, κάντε κλικ για να δείτε τις μετεωρολογικές αναφορές και τις προγνώσεις καιρού.

Για να αλλάξετε το χάρτη: κάντε κλικ στα πράσινα κουμπιά με τον μαύρο σταυρό για να ζουμάρετε, στο πράσινο κουμπί με την παύλα για να αφαιρέσετε το ζουμ ή στα πράσινα βέλη για να αντιπαραβάλλετε χάρτες.


METAR-TAF: